Time;durP1;ratioP1;P1;durP2;ratioP2;P2;SDS_P1;SDS_P2;PMS_P1;PMS_P2;Temp;Humidity;BMP_temperature;BMP_pressure;BME280_temperature;BME280_humidity;BME280_pressure;Samples;Min_cycle;Max_cycle;Signal;HPM_P1;HPM_P2
2021/04/28 00:00:07;;;;;;;31.67;27.23;;;19.00;78.30;;;;;;5073393;28;20028;-65
2021/04/28 00:02:35;;;;;;;29.77;25.92;;;19.30;77.60;;;;;;5034069;28;20024;-65
2021/04/28 00:05:09;;;;;;;28.45;25.45;;;19.60;76.80;;;;;;5067187;28;20096;-69
2021/04/28 00:07:37;;;;;;;24.63;21.50;;;19.90;77.00;;;;;;5073951;28;20036;-65
2021/04/28 00:10:10;;;;;;;23.10;19.52;;;20.20;75.70;;;;;;5069175;28;20020;-65
2021/04/28 00:12:38;;;;;;;25.38;19.85;;;20.30;74.30;;;;;;5071102;28;20032;-64
2021/04/28 00:15:12;;;;;;;21.60;16.52;;;20.50;73.20;;;;;;5070734;28;20024;-64
2021/04/28 00:17:40;;;;;;;18.98;16.55;;;20.50;72.50;;;;;;5072704;28;20510;-64
2021/04/28 00:20:09;;;;;;;26.67;23.83;;;20.60;72.80;;;;;;5070089;28;20024;-63
2021/04/28 00:22:37;;;;;;;23.25;20.80;;;20.70;73.40;;;;;;5071682;28;20031;-63
2021/04/28 00:25:11;;;;;;;20.98;15.45;;;20.80;72.60;;;;;;5070170;28;20526;-62
2021/04/28 00:27:38;;;;;;;22.08;16.52;;;21.00;70.80;;;;;;5070373;28;20020;-65
2021/04/28 00:30:08;;;;;;;17.35;15.60;;;21.30;70.90;;;;;;5072199;28;20047;-65
2021/04/28 00:32:37;;;;;;;16.27;13.75;;;21.50;70.20;;;;;;5070762;28;20509;-62
2021/04/28 00:35:10;;;;;;;16.05;13.35;;;21.80;69.50;;;;;;5062001;28;20055;-65
2021/04/28 00:37:38;;;;;;;16.73;14.15;;;22.00;68.40;;;;;;5072134;28;20428;-62
2021/04/28 00:40:11;;;;;;;22.40;16.48;;;22.00;67.40;;;;;;5072832;28;20478;-66
2021/04/28 00:42:40;;;;;;;27.83;22.55;;;22.00;68.50;;;;;;5072539;28;20021;-62
2021/04/28 00:45:09;;;;;;;18.20;16.15;;;21.80;67.50;;;;;;5071739;28;20073;-63
2021/04/28 00:47:36;;;;;;;18.52;16.63;;;21.60;67.70;;;;;;5066277;28;20036;-61
2021/04/28 00:50:05;;;;;;;19.63;17.60;;;21.40;68.20;;;;;;5063155;28;20032;-62
2021/04/28 00:52:33;;;;;;;17.48;15.45;;;21.40;67.80;;;;;;5062824;28;20150;-66
2021/04/28 00:55:04;;;;;;;15.70;14.02;;;21.40;67.50;;;;;;5060012;28;20106;-66
2021/04/28 00:57:31;;;;;;;19.23;17.33;;;21.30;66.80;;;;;;5062127;28;20358;-62
2021/04/28 00:59:59;;;;;;;19.52;16.83;;;21.30;67.60;;;;;;5068858;28;20058;-68
2021/04/28 01:02:26;;;;;;;16.77;14.35;;;21.30;67.90;;;;;;5073488;28;20024;-68
2021/04/28 01:04:54;;;;;;;15.32;13.73;;;21.50;67.00;;;;;;5067529;28;20631;-64
2021/04/28 01:07:22;;;;;;;18.88;14.10;;;21.90;65.40;;;;;;5069577;28;20025;-65
2021/04/28 01:09:49;;;;;;;16.50;14.82;;;22.10;65.30;;;;;;5070618;28;20025;-64
2021/04/28 01:12:17;;;;;;;17.02;15.32;;;22.30;63.80;;;;;;5069546;28;20016;-70
2021/04/28 01:14:45;;;;;;;16.77;13.45;;;22.50;63.10;;;;;;5066988;28;20029;-64
2021/04/28 01:17:12;;;;;;;15.02;13.48;;;22.60;62.20;;;;;;5073223;28;20024;-67
2021/04/28 01:19:40;;;;;;;13.88;11.93;;;22.70;62.00;;;;;;5068471;28;20171;-63
2021/04/28 01:22:07;;;;;;;17.63;13.98;;;22.60;62.10;;;;;;5064133;28;20029;-64
2021/04/28 01:24:35;;;;;;;14.25;12.75;;;22.50;62.40;;;;;;5064083;28;20397;-68
2021/04/28 01:27:13;;;;;;;15.73;12.65;;;22.60;63.60;;;;;;5072042;28;20088;-69
2021/04/28 01:29:43;;;;;;;16.45;12.80;;;22.90;61.20;;;;;;5067298;28;20441;-67
2021/04/28 01:32:16;;;;;;;13.23;11.82;;;22.40;62.00;;;;;;5060915;28;20480;-68
2021/04/28 01:34:44;;;;;;;13.98;12.48;;;22.00;63.60;;;;;;5063074;28;20024;-63
2021/04/28 01:37:13;;;;;;;14.10;12.38;;;21.70;65.50;;;;;;5061379;28;20356;-68
2021/04/28 01:39:42;;;;;;;14.80;9.98;;;21.70;65.90;;;;;;5069532;28;20036;-64
2021/04/28 01:42:10;;;;;;;13.45;10.55;;;22.10;63.40;;;;;;5073440;28;20381;-68
2021/04/28 01:44:38;;;;;;;10.52;9.38;;;22.40;64.00;;;;;;5076302;28;20074;-68
2021/04/28 01:47:06;;;;;;;12.63;8.95;;;22.70;61.40;;;;;;5073548;28;20119;-63
2021/04/28 01:49:34;;;;;;;7.40;4.93;;;23.20;61.60;;;;;;5071612;28;20470;-69
2021/04/28 01:52:03;;;;;;;9.95;7.07;;;23.50;55.30;;;;;;5071417;28;20020;-63
2021/04/28 01:54:31;;;;;;;13.13;7.47;;;23.70;58.00;;;;;;5071195;28;20069;-64
2021/04/28 01:56:58;;;;;;;8.68;6.55;;;23.60;56.80;;;;;;5071362;28;20766;-70
2021/04/28 01:59:26;;;;;;;9.18;6.97;;;23.50;58.10;;;;;;5073867;28;20032;-69
2021/04/28 02:01:56;;;;;;;8.90;5.95;;;23.30;56.80;;;;;;5068123;28;20035;-63
2021/04/28 02:04:23;;;;;;;23.05;6.57;;;23.10;57.80;;;;;;5071027;28;20021;-63
2021/04/28 02:06:51;;;;;;;8.57;6.38;;;23.50;56.40;;;;;;5074623;28;20028;-62
2021/04/28 02:09:19;;;;;;;7.55;5.38;;;23.90;56.20;;;;;;5072059;28;20024;-67
2021/04/28 02:11:47;;;;;;;14.63;12.93;;;24.10;54.40;;;;;;5072370;28;20143;-63
2021/04/28 02:14:21;;;;;;;10.73;8.68;;;24.00;54.70;;;;;;5072137;28;20471;-63
2021/04/28 02:16:49;;;;;;;6.65;5.40;;;23.90;53.80;;;;;;5069382;28;20040;-63
2021/04/28 02:19:18;;;;;;;6.82;6.03;;;23.80;54.10;;;;;;5076480;28;20016;-63
2021/04/28 02:21:49;;;;;;;7.70;6.50;;;23.70;54.50;;;;;;5075086;28;20065;-64
2021/04/28 02:24:17;;;;;;;6.97;6.30;;;23.50;56.30;;;;;;5075439;28;20024;-69
2021/04/28 02:26:46;;;;;;;8.45;6.28;;;23.40;56.40;;;;;;5075896;28;20056;-69
2021/04/28 02:29:13;;;;;;;7.47;6.10;;;23.50;55.00;;;;;;5071080;28;20382;-69
2021/04/28 02:31:41;;;;;;;8.50;6.13;;;23.50;56.00;;;;;;5074006;28;20025;-63
2021/04/28 02:34:09;;;;;;;19.15;12.23;;;23.60;56.40;;;;;;5073506;28;20111;-68
2021/04/28 02:36:41;;;;;;;11.80;7.68;;;23.50;58.10;;;;;;5074239;28;20043;-68
2021/04/28 02:39:14;;;;;;;10.73;7.85;;;23.50;57.20;;;;;;5070827;28;20035;-62
2021/04/28 02:41:46;;;;;;;8.57;7.25;;;23.40;57.10;;;;;;5069818;28;20473;-68
2021/04/28 02:44:18;;;;;;;7.97;6.43;;;23.50;57.80;;;;;;5074065;28;20179;-65
2021/04/28 02:46:47;;;;;;;7.30;6.47;;;23.70;55.60;;;;;;5099700;22;20056;-64
2021/04/28 02:49:17;;;;;;;11.00;6.53;;;23.70;55.60;;;;;;5055287;28;20539;-69
2021/04/28 02:51:45;;;;;;;7.45;6.55;;;23.70;55.10;;;;;;5054006;28;20025;-70
2021/04/28 02:54:13;;;;;;;10.23;5.97;;;23.80;56.80;;;;;;5053616;28;20033;-69
2021/04/28 02:56:41;;;;;;;7.97;6.15;;;24.40;56.40;;;;;;5055994;28;20119;-64
2021/04/28 02:59:08;;;;;;;7.32;5.90;;;25.00;52.80;;;;;;5054558;28;20017;-63
2021/04/28 03:01:39;;;;;;;10.70;6.65;;;25.50;52.60;;;;;;5056181;28;20025;-68
2021/04/28 03:04:08;;;;;;;9.10;6.18;;;25.80;52.00;;;;;;5050406;28;20032;-67
2021/04/28 03:06:36;;;;;;;7.43;6.68;;;25.80;50.50;;;;;;5055228;28;20017;-65
2021/04/28 03:09:05;;;;;;;9.55;6.68;;;25.60;50.00;;;;;;5053400;28;20368;-64
2021/04/28 03:11:34;;;;;;;8.10;7.00;;;25.20;50.70;;;;;;5055536;28;20104;-64
2021/04/28 03:14:02;;;;;;;7.05;5.70;;;24.70;52.50;;;;;;5056426;28;20012;-63
2021/04/28 03:16:30;;;;;;;10.75;5.82;;;24.70;51.60;;;;;;5053263;28;20124;-64
2021/04/28 03:19:02;;;;;;;7.72;5.60;;;24.70;52.00;;;;;;5052849;28;20021;-65
2021/04/28 03:21:33;;;;;;;19.92;6.43;;;24.80;50.80;;;;;;5050574;28;20021;-68
2021/04/28 03:24:01;;;;;;;9.65;5.85;;;25.10;52.50;;;;;;5038042;28;20032;-69
2021/04/28 03:26:29;;;;;;;10.40;6.25;;;25.50;51.50;;;;;;5051591;28;20474;-68
2021/04/28 03:28:57;;;;;;;10.73;6.03;;;25.60;51.50;;;;;;5055564;28;20021;-64
2021/04/28 03:31:25;;;;;;;6.95;5.50;;;25.40;50.40;;;;;;5054440;28;20028;-68
2021/04/28 03:33:52;;;;;;;8.68;6.00;;;25.30;49.90;;;;;;5053643;28;20017;-65
2021/04/28 03:36:19;;;;;;;6.80;5.85;;;25.00;49.60;;;;;;5053080;28;20071;-68
2021/04/28 03:38:47;;;;;;;6.85;6.13;;;24.60;50.90;;;;;;5048330;28;20021;-64
2021/04/28 03:41:14;;;;;;;5.90;5.32;;;24.20;51.30;;;;;;5045843;28;20025;-69
2021/04/28 03:43:41;;;;;;;5.88;5.32;;;24.00;52.30;;;;;;5052194;28;20590;-65
2021/04/28 03:46:09;;;;;;;10.15;7.10;;;23.60;52.20;;;;;;5052806;28;20037;-64
2021/04/28 03:48:38;;;;;;;9.23;5.22;;;23.50;53.80;;;;;;5050290;28;20021;-67
2021/04/28 03:51:05;;;;;;;9.50;6.00;;;23.50;54.60;;;;;;5052881;28;20067;-63
2021/04/28 03:53:32;;;;;;;8.13;5.78;;;23.70;54.00;;;;;;5050529;28;20055;-69
2021/04/28 03:56:00;;;;;;;6.40;5.80;;;24.00;54.50;;;;;;5052389;28;20575;-67
2021/04/28 03:58:27;;;;;;;7.97;5.85;;;24.50;54.30;;;;;;5050389;28;20025;-63
2021/04/28 04:00:54;;;;;;;8.05;5.32;;;25.00;52.40;;;;;;5050658;28;20024;-64
2021/04/28 04:03:21;;;;;;;7.30;4.75;;;25.40;51.40;;;;;;5048722;28;20025;-63
2021/04/28 04:05:50;;;;;;;5.35;4.80;;;25.50;47.30;;;;;;5051782;28;20104;-64
2021/04/28 04:08:18;;;;;;;5.40;4.85;;;25.20;48.50;;;;;;5053234;28;20021;-66
2021/04/28 04:10:45;;;;;;;6.00;5.32;;;25.10;48.70;;;;;;5048841;28;20054;-63
2021/04/28 04:13:12;;;;;;;4.90;4.45;;;25.10;48.60;;;;;;5052363;28;20051;-63
2021/04/28 04:15:39;;;;;;;6.25;4.63;;;25.40;47.90;;;;;;5050729;28;20072;-69
2021/04/28 04:18:07;;;;;;;5.05;4.57;;;25.80;46.80;;;;;;5047747;28;20059;-64
2021/04/28 04:20:34;;;;;;;6.35;4.47;;;25.80;46.10;;;;;;5049457;28;20051;-69
2021/04/28 04:23:02;;;;;;;5.75;4.38;;;25.70;47.20;;;;;;5049951;28;20021;-69
2021/04/28 04:25:29;;;;;;;7.40;5.15;;;25.40;47.30;;;;;;5055354;28;20036;-69
2021/04/28 04:27:56;;;;;;;4.63;4.07;;;25.30;48.10;;;;;;5043514;28;20021;-69
2021/04/28 04:30:24;;;;;;;8.68;6.47;;;25.20;46.60;;;;;;5053526;28;20041;-69
2021/04/28 04:32:51;;;;;;;6.75;6.15;;;25.10;48.30;;;;;;5050743;28;20029;-68
2021/04/28 04:35:19;;;;;;;6.15;4.95;;;24.90;48.60;;;;;;5050321;28;20455;-63
2021/04/28 04:37:47;;;;;;;9.52;8.02;;;24.70;47.60;;;;;;5048453;28;20032;-64
2021/04/28 04:40:15;;;;;;;5.90;4.65;;;24.60;49.20;;;;;;5050644;28;20020;-65
2021/04/28 04:42:42;;;;;;;5.88;4.97;;;24.20;50.00;;;;;;5050857;28;20146;-68
2021/04/28 04:45:11;;;;;;;6.60;4.57;;;24.10;50.70;;;;;;5051204;28;20573;-64
2021/04/28 04:47:38;;;;;;;5.85;5.25;;;24.00;50.50;;;;;;5051037;28;20029;-68
2021/04/28 04:50:08;;;;;;;6.38;4.82;;;23.90;50.60;;;;;;5048525;28;20021;-68
2021/04/28 04:52:35;;;;;;;6.53;5.13;;;23.90;50.70;;;;;;5050803;28;20016;-69
2021/04/28 04:55:03;;;;;;;6.63;4.88;;;24.00;50.60;;;;;;5053016;28;20172;-69
2021/04/28 04:57:30;;;;;;;6.18;5.22;;;24.00;51.10;;;;;;5049153;28;20024;-68
2021/04/28 04:59:57;;;;;;;7.30;5.55;;;24.00;51.00;;;;;;5050710;28;20032;-67
2021/04/28 05:02:24;;;;;;;5.20;4.75;;;23.90;51.30;;;;;;5047639;28;20033;-63
2021/04/28 05:04:52;;;;;;;6.70;4.82;;;23.90;51.30;;;;;;5050557;28;20127;-69
2021/04/28 05:07:19;;;;;;;5.97;5.10;;;23.90;50.90;;;;;;5049512;28;20116;-68
2021/04/28 05:09:46;;;;;;;5.85;4.63;;;24.00;50.00;;;;;;5046445;28;20131;-64
2021/04/28 05:12:14;;;;;;;8.90;4.82;;;23.90;50.50;;;;;;5053461;28;20104;-64
2021/04/28 05:14:41;;;;;;;8.30;5.55;;;23.80;49.90;;;;;;5049688;28;20029;-68
2021/04/28 05:17:08;;;;;;;5.65;4.75;;;23.60;51.20;;;;;;5051891;28;20108;-68
2021/04/28 05:19:36;;;;;;;7.32;5.10;;;23.50;51.40;;;;;;5056194;28;20404;-64
2021/04/28 05:22:03;;;;;;;6.07;5.47;;;23.40;51.40;;;;;;5054978;28;20471;-64
2021/04/28 05:24:30;;;;;;;5.65;5.13;;;23.20;53.10;;;;;;5054299;28;20017;-69
2021/04/28 05:26:58;;;;;;;6.65;5.32;;;23.20;53.40;;;;;;5052603;28;20013;-68
2021/04/28 05:29:25;;;;;;;6.43;5.63;;;23.10;54.10;;;;;;5049340;28;20059;-63
2021/04/28 05:31:52;;;;;;;7.10;5.25;;;23.10;53.90;;;;;;5055759;28;20757;-63
2021/04/28 05:34:19;;;;;;;6.40;5.05;;;23.00;54.10;;;;;;5054945;28;20024;-68
2021/04/28 05:36:47;;;;;;;8.85;4.97;;;22.90;56.40;;;;;;5054511;28;20620;-64
2021/04/28 05:39:14;;;;;;;5.75;5.15;;;22.80;57.70;;;;;;5053173;28;20023;-69
2021/04/28 05:41:41;;;;;;;6.25;4.43;;;22.70;59.30;;;;;;5055521;28;20017;-64
2021/04/28 05:44:09;;;;;;;6.70;4.75;;;22.70;59.50;;;;;;5053337;28;20127;-64
2021/04/28 05:46:37;;;;;;;5.28;4.30;;;22.70;59.70;;;;;;5052784;28;20525;-68
2021/04/28 05:49:05;;;;;;;6.60;5.05;;;22.90;59.80;;;;;;5052307;28;20020;-64
2021/04/28 05:51:33;;;;;;;5.93;4.90;;;23.00;58.10;;;;;;5049099;28;20399;-68
2021/04/28 05:54:01;;;;;;;11.15;5.10;;;22.90;58.60;;;;;;5055731;28;20017;-64
2021/04/28 05:56:28;;;;;;;6.80;5.07;;;22.80;59.10;;;;;;5054375;28;20095;-69
2021/04/28 05:58:55;;;;;;;7.38;5.18;;;22.70;59.00;;;;;;5053808;28;21065;-68
2021/04/28 06:01:22;;;;;;;5.90;5.00;;;22.70;60.30;;;;;;5054993;28;20048;-64
2021/04/28 06:03:50;;;;;;;6.60;4.97;;;22.70;60.00;;;;;;5052838;28;20334;-68
2021/04/28 06:06:17;;;;;;;6.70;5.32;;;22.90;59.00;;;;;;5053675;28;20037;-69
2021/04/28 06:08:45;;;;;;;5.63;4.30;;;22.90;58.70;;;;;;5052854;28;20502;-63
2021/04/28 06:11:12;;;;;;;7.88;4.45;;;23.00;58.60;;;;;;5053496;28;20116;-63
2021/04/28 06:13:39;;;;;;;7.32;5.07;;;23.10;58.30;;;;;;5049324;28;20029;-69
2021/04/28 06:16:06;;;;;;;5.63;4.47;;;23.10;58.90;;;;;;5048080;28;20032;-68
2021/04/28 06:18:34;;;;;;;5.20;3.88;;;23.00;58.40;;;;;;5046104;28;20318;-68
2021/04/28 06:21:01;;;;;;;10.13;8.05;;;22.90;58.50;;;;;;5046029;28;20025;-63
2021/04/28 06:23:29;;;;;;;6.75;4.80;;;22.90;59.30;;;;;;4348162;28;10000590;-63
2021/04/28 06:25:56;;;;;;;7.18;4.32;;;22.70;59.20;;;;;;5041829;28;20039;-63
2021/04/28 06:28:23;;;;;;;5.68;4.03;;;22.60;59.50;;;;;;5036446;28;20403;-63
2021/04/28 06:30:50;;;;;;;6.63;4.68;;;22.50;60.10;;;;;;5042373;28;20410;-67
2021/04/28 06:33:18;;;;;;;5.75;4.18;;;22.40;60.50;;;;;;5042921;28;20379;-63
2021/04/28 06:35:45;;;;;;;5.63;4.03;;;22.30;60.80;;;;;;5028620;28;20318;-63
2021/04/28 06:38:12;;;;;;;6.80;4.13;;;22.20;60.30;;;;;;5044039;28;20013;-63
2021/04/28 06:40:40;;;;;;;6.00;5.38;;;22.20;60.20;;;;;;5041580;28;20542;-64
2021/04/28 06:43:07;;;;;;;6.85;5.05;;;22.40;60.20;;;;;;5043033;28;20025;-64
2021/04/28 06:45:35;;;;;;;4.93;4.15;;;22.60;59.60;;;;;;5041118;28;20390;-63
2021/04/28 06:48:04;;;;;;;6.82;4.45;;;22.70;58.30;;;;;;5042116;28;20870;-64
2021/04/28 06:50:32;;;;;;;5.28;4.38;;;22.80;58.80;;;;;;5042708;28;20091;-68
2021/04/28 06:52:59;;;;;;;8.77;6.28;;;22.80;58.70;;;;;;5043225;28;20413;-63
2021/04/28 06:55:27;;;;;;;4.95;4.47;;;22.70;59.00;;;;;;5042045;28;20461;-68
2021/04/28 06:57:56;;;;;;;4.78;4.28;;;22.40;59.70;;;;;;5045897;28;20106;-63
2021/04/28 07:00:28;;;;;;;5.75;4.20;;;22.20;60.60;;;;;;5049823;28;20458;-67
2021/04/28 07:02:57;;;;;;;6.00;4.38;;;22.00;60.60;;;;;;5036193;28;20226;-67
2021/04/28 07:05:27;;;;;;;6.28;4.22;;;21.70;62.00;;;;;;5044199;28;20107;-68
2021/04/28 07:07:58;;;;;;;5.47;4.68;;;21.50;62.60;;;;;;5045339;28;20387;-67
2021/04/28 07:10:26;;;;;;;4.78;4.28;;;21.30;63.80;;;;;;5044226;28;20039;-68
2021/04/28 07:12:54;;;;;;;6.95;4.28;;;21.20;63.90;;;;;;5019718;28;20373;-63
2021/04/28 07:15:21;;;;;;;4.47;4.00;;;21.00;64.70;;;;;;5044210;28;20016;-67
2021/04/28 07:17:50;;;;;;;8.80;5.05;;;20.60;66.10;;;;;;5045093;28;20119;-63
2021/04/28 07:20:18;;;;;;;7.82;4.55;;;20.40;66.80;;;;;;5044231;28;20028;-69
2021/04/28 07:22:46;;;;;;;6.07;4.65;;;20.30;67.40;;;;;;5043714;28;20124;-63
2021/04/28 07:25:13;;;;;;;5.82;4.32;;;20.00;68.80;;;;;;5035154;28;20095;-67
2021/04/28 07:27:43;;;;;;;8.57;4.75;;;19.80;69.40;;;;;;5044986;28;20763;-62
2021/04/28 07:30:12;;;;;;;5.45;4.85;;;19.70;70.30;;;;;;5045531;28;20123;-68
2021/04/28 07:32:40;;;;;;;6.13;4.50;;;19.50;70.60;;;;;;5047567;28;20043;-70
2021/04/28 07:35:07;;;;;;;6.32;4.53;;;19.40;71.50;;;;;;5020478;28;20399;-69
2021/04/28 07:37:35;;;;;;;7.65;5.35;;;19.30;72.20;;;;;;5039998;28;20048;-67
2021/04/28 07:40:05;;;;;;;6.68;5.38;;;19.20;72.60;;;;;;5040111;28;20104;-69
2021/04/28 07:42:32;;;;;;;5.57;5.00;;;19.00;73.60;;;;;;5042078;28;20041;-67
2021/04/28 07:45:00;;;;;;;7.43;6.20;;;18.80;74.40;;;;;;5040480;28;20331;-68
2021/04/28 07:47:27;;;;;;;6.55;5.45;;;18.80;75.00;;;;;;5043556;28;20045;-71
2021/04/28 07:49:54;;;;;;;7.45;6.55;;;18.70;75.40;;;;;;5037859;28;20036;-72
2021/04/28 07:52:21;;;;;;;9.02;6.90;;;18.60;75.70;;;;;;5048211;28;20729;-66
2021/04/28 07:54:49;;;;;;;11.38;9.00;;;18.50;75.90;;;;;;5049110;28;20113;-71
2021/04/28 07:57:16;;;;;;;13.50;8.10;;;18.40;76.20;;;;;;5044006;28;20021;-65
2021/04/28 07:59:44;;;;;;;10.57;8.35;;;18.40;76.60;;;;;;5038538;28;20621;-67
2021/04/28 08:02:13;;;;;;;10.23;7.68;;;18.30;76.80;;;;;;5016868;28;20225;-67
2021/04/28 08:04:40;;;;;;;9.63;6.82;;;18.10;77.70;;;;;;5036896;28;20025;-66
2021/04/28 08:07:09;;;;;;;10.40;6.60;;;18.00;78.10;;;;;;5040311;28;20460;-67
2021/04/28 08:09:37;;;;;;;8.70;6.15;;;18.00;78.50;;;;;;5038195;28;20052;-65
2021/04/28 08:12:06;;;;;;;7.78;6.20;;;18.00;78.30;;;;;;5035569;28;20025;-66
2021/04/28 08:14:33;;;;;;;6.90;6.20;;;17.90;78.70;;;;;;5035141;28;20468;-65
2021/04/28 08:17:01;;;;;;;8.23;6.60;;;17.80;79.10;;;;;;5032308;28;20250;-67
2021/04/28 08:19:28;;;;;;;8.77;7.18;;;17.70;79.40;;;;;;5031318;28;20072;-66
2021/04/28 08:21:56;;;;;;;10.68;7.50;;;17.60;79.80;;;;;;5035765;28;20071;-67
2021/04/28 08:24:24;;;;;;;8.55;6.97;;;17.50;80.50;;;;;;5035998;28;20076;-65
2021/04/28 08:26:52;;;;;;;10.80;6.78;;;17.40;80.70;;;;;;5033185;28;20020;-62
2021/04/28 08:29:19;;;;;;;8.43;6.65;;;17.30;81.20;;;;;;5037710;28;20017;-62
2021/04/28 08:31:47;;;;;;;7.78;6.32;;;17.30;81.10;;;;;;5035602;28;20021;-67
2021/04/28 08:34:14;;;;;;;10.23;8.90;;;17.20;81.60;;;;;;5033586;28;20017;-66
2021/04/28 08:36:42;;;;;;;10.30;8.20;;;17.10;81.90;;;;;;5032986;28;20389;-66
2021/04/28 08:39:09;;;;;;;8.85;7.72;;;17.10;81.70;;;;;;5037449;28;20428;-68
2021/04/28 08:41:37;;;;;;;11.27;8.98;;;17.10;81.80;;;;;;5037463;28;20036;-68
2021/04/28 08:44:09;;;;;;;16.10;14.35;;;17.10;82.20;;;;;;5036946;28;20035;-69
2021/04/28 08:46:37;;;;;;;7.63;6.28;;;16.90;82.80;;;;;;5031042;28;20049;-67
2021/04/28 08:49:05;;;;;;;7.80;6.13;;;16.90;83.10;;;;;;5036970;28;20052;-70
2021/04/28 08:51:33;;;;;;;7.95;5.97;;;16.80;83.00;;;;;;5032981;28;20037;-68
2021/04/28 08:54:01;;;;;;;6.22;5.65;;;16.80;83.40;;;;;;5039881;28;20790;-65
2021/04/28 08:56:28;;;;;;;8.68;5.90;;;16.70;83.60;;;;;;5032586;28;20047;-69
2021/04/28 08:58:58;;;;;;;8.63;6.47;;;16.60;83.80;;;;;;5030483;28;20581;-70
2021/04/28 09:01:32;;;;;;;8.93;6.18;;;16.60;84.40;;;;;;5023580;28;20029;-68
2021/04/28 09:04:01;;;;;;;7.13;6.43;;;16.60;84.20;;;;;;5031215;28;20021;-70
2021/04/28 09:06:35;;;;;;;8.68;7.22;;;16.50;84.60;;;;;;5031427;28;20510;-66
2021/04/28 09:09:07;;;;;;;9.02;7.85;;;16.50;84.50;;;;;;5032153;28;20074;-69
2021/04/28 09:11:45;;;;;;;8.27;7.22;;;16.40;84.80;;;;;;5028194;28;20119;-70
2021/04/28 09:14:20;;;;;;;8.15;6.82;;;16.40;84.80;;;;;;5031065;28;20447;-68
2021/04/28 09:17:07;;;;;;;9.93;7.35;;;16.30;85.30;;;;;;5025780;28;20450;-68
2021/04/28 09:19:45;;;;;;;8.20;7.32;;;16.20;85.60;;;;;;5034803;28;20476;-66
2021/04/28 09:22:16;;;;;;;7.40;6.70;;;16.10;85.90;;;;;;5029646;28;20511;-70
2021/04/28 09:24:54;;;;;;;9.23;7.07;;;16.10;86.60;;;;;;5026460;28;20029;-66
2021/04/28 09:27:35;;;;;;;8.65;7.20;;;16.00;87.00;;;;;;5029590;28;20028;-66
2021/04/28 09:30:07;;;;;;;8.23;6.72;;;16.00;87.10;;;;;;5029035;28;20079;-66
2021/04/28 09:32:36;;;;;;;9.07;7.72;;;16.00;87.10;;;;;;5025824;28;20128;-66
2021/04/28 09:35:18;;;;;;;11.63;7.40;;;15.90;87.50;;;;;;5006815;28;20036;-71
2021/04/28 09:38:14;;;;;;;7.78;6.97;;;15.80;87.40;;;;;;5028069;28;20118;-66
2021/04/28 09:41:04;;;;;;;6.82;6.13;;;15.70;88.00;;;;;;5007629;28;20045;-68
2021/04/28 09:43:38;;;;;;;8.40;6.32;;;15.70;87.80;;;;;;5019357;28;20045;-66
2021/04/28 09:46:06;;;;;;;11.30;7.70;;;15.70;88.60;;;;;;5015426;28;20076;-71
2021/04/28 09:48:33;;;;;;;11.15;7.20;;;15.70;88.00;;;;;;5027184;28;20022;-67
2021/04/28 09:51:08;;;;;;;9.07;6.78;;;15.60;88.20;;;;;;5029155;28;20100;-74
2021/04/28 09:53:36;;;;;;;19.33;14.00;;;15.50;88.80;;;;;;5025888;28;20048;-68
2021/04/28 09:56:15;;;;;;;8.90;6.97;;;15.40;88.80;;;;;;5026119;28;20060;-67
2021/04/28 09:58:51;;;;;;;9.82;7.35;;;15.40;89.20;;;;;;5030698;28;20037;-72
2021/04/28 10:01:30;;;;;;;9.95;7.43;;;15.40;88.90;;;;;;5036145;28;20074;-73
2021/04/28 10:03:57;;;;;;;9.30;7.32;;;15.40;89.10;;;;;;5026073;28;20029;-73
2021/04/28 10:06:47;;;;;;;8.80;7.25;;;15.40;89.00;;;;;;5034104;28;20021;-75
2021/04/28 10:09:35;;;;;;;9.63;6.85;;;15.30;89.40;;;;;;5027394;28;20109;-66
2021/04/28 10:12:07;;;;;;;8.77;7.10;;;15.20;89.60;;;;;;5028941;28;20025;-66
2021/04/28 10:14:36;;;;;;;;;;;15.10;89.80;;;;;;5030902;28;20407;-63
2021/04/28 10:17:05;;;;;;;9.32;7.38;;;15.10;89.80;;;;;;5034027;28;20376;-70
2021/04/28 10:19:34;;;;;;;6.78;6.18;;;15.10;89.60;;;;;;5033721;28;20024;-67
2021/04/28 10:22:19;;;;;;;8.32;7.28;;;15.10;89.80;;;;;;5020170;28;20108;-66
2021/04/28 10:24:54;;;;;;;10.90;7.38;;;15.00;90.00;;;;;;5027520;28;20796;-69
2021/04/28 10:27:22;;;;;;;9.60;7.05;;;14.90;90.20;;;;;;5037459;28;20032;-64
2021/04/28 10:29:51;;;;;;;9.85;7.70;;;14.90;90.30;;;;;;5035282;28;20031;-69
2021/04/28 10:32:21;;;;;;;10.35;7.25;;;14.90;90.40;;;;;;5031136;28;20024;-71
2021/04/28 10:35:08;;;;;;;10.60;7.05;;;14.80;90.60;;;;;;5032048;28;20538;-64
2021/04/28 10:37:41;;;;;;;9.35;6.80;;;14.80;90.70;;;;;;5030014;28;20025;-70
2021/04/28 10:40:15;;;;;;;10.23;7.00;;;14.80;90.50;;;;;;5029114;28;20108;-64
2021/04/28 10:42:43;;;;;;;10.15;7.60;;;14.70;90.60;;;;;;5029804;28;20582;-70
2021/04/28 10:45:19;;;;;;;11.52;6.95;;;14.80;90.40;;;;;;5026934;28;20060;-67
2021/04/28 10:47:48;;;;;;;9.45;6.68;;;14.80;90.30;;;;;;5007322;28;20049;-70
2021/04/28 10:50:24;;;;;;;9.25;7.10;;;14.80;90.40;;;;;;5013213;28;20022;-67
2021/04/28 10:53:00;;;;;;;10.50;7.22;;;14.70;90.50;;;;;;4996153;28;20033;-67
2021/04/28 10:55:38;;;;;;;12.77;7.43;;;14.70;90.60;;;;;;5004395;28;20036;-64
2021/04/28 10:58:28;;;;;;;7.93;6.82;;;14.70;90.60;;;;;;4998659;28;20037;-70
2021/04/28 11:01:07;;;;;;;10.05;7.20;;;14.60;90.50;;;;;;5013634;28;20033;-69
2021/04/28 11:03:34;;;;;;;10.90;7.03;;;14.60;90.60;;;;;;5017660;28;20163;-63
2021/04/28 11:06:23;;;;;;;7.95;7.07;;;14.60;90.60;;;;;;5011194;28;20026;-67
2021/04/28 11:09:00;;;;;;;10.68;7.43;;;14.50;90.70;;;;;;5009361;28;20077;-63
2021/04/28 11:11:35;;;;;;;12.27;7.25;;;14.50;91.00;;;;;;5002241;28;20129;-63
2021/04/28 11:14:14;;;;;;;11.45;7.65;;;14.40;91.30;;;;;;5011046;28;20528;-67
2021/04/28 11:16:49;;;;;;;12.23;8.82;;;14.40;91.20;;;;;;5011148;28;20290;-66
2021/04/28 11:19:25;;;;;;;12.50;7.93;;;14.50;91.20;;;;;;5010416;28;20116;-63
2021/04/28 11:22:10;;;;;;;11.27;7.75;;;14.40;91.30;;;;;;5014515;28;20064;-67
2021/04/28 11:25:13;;;;;;;13.88;7.82;;;14.50;91.10;;;;;;5006005;28;20029;-63
2021/04/28 11:28:01;;;;;;;14.68;9.60;;;14.50;90.90;;;;;;4993202;28;20089;-64
2021/04/28 11:30:48;;;;;;;13.48;8.15;;;14.40;91.10;;;;;;5014094;28;20424;-63
2021/04/28 11:33:20;;;;;;;14.23;10.45;;;14.40;91.30;;;;;;5012728;28;20026;-70
2021/04/28 11:35:54;;;;;;;11.82;8.02;;;14.30;91.20;;;;;;5004871;28;20447;-64
2021/04/28 11:38:28;;;;;;;15.10;9.82;;;14.30;91.40;;;;;;5014030;28;20396;-74
2021/04/28 11:41:05;;;;;;;15.18;9.50;;;14.30;91.30;;;;;;5011139;28;20400;-63
2021/04/28 11:43:38;;;;;;;16.88;8.23;;;14.30;91.30;;;;;;5006942;28;20034;-73
2021/04/28 11:46:21;;;;;;;12.80;8.35;;;14.30;91.40;;;;;;4995142;28;20436;-65
2021/04/28 11:48:51;;;;;;;12.82;7.47;;;14.20;91.50;;;;;;5038741;28;20085;-68
2021/04/28 11:51:24;;;;;;;18.38;8.85;;;14.20;91.60;;;;;;5026035;28;20033;-71
2021/04/28 11:53:58;;;;;;;14.95;9.25;;;14.30;91.60;;;;;;5029388;28;20064;-69
2021/04/28 11:56:45;;;;;;;12.55;8.32;;;14.20;91.70;;;;;;5017648;28;20174;-66
2021/04/28 11:59:31;;;;;;;17.48;9.60;;;14.20;91.70;;;;;;5039935;28;20035;-67
2021/04/28 12:02:03;;;;;;;14.20;8.18;;;14.20;91.80;;;;;;5037335;28;20569;-65
2021/04/28 12:04:30;;;;;;;;;;;14.20;91.60;;;;;;5037666;28;20484;-68
2021/04/28 12:06:58;;;;;;;13.60;8.88;;;14.10;91.80;;;;;;5028084;28;19959;-65
2021/04/28 12:09:47;;;;;;;15.52;8.55;;;14.10;92.10;;;;;;5021628;28;20021;-63
2021/04/28 12:12:26;;;;;;;15.40;9.27;;;14.00;91.90;;;;;;5020739;28;20028;-67
2021/04/28 12:15:06;;;;;;;12.38;8.35;;;14.00;91.90;;;;;;5036324;28;20116;-66
2021/04/28 12:17:36;;;;;;;12.90;8.27;;;13.90;91.80;;;;;;5015884;28;20029;-64
2021/04/28 12:20:09;;;;;;;13.27;8.55;;;13.90;91.80;;;;;;5040367;28;20066;-64
2021/04/28 12:22:37;;;;;;;14.23;9.32;;;13.90;92.00;;;;;;5009072;28;20324;-68
2021/04/28 12:25:07;;;;;;;13.43;9.50;;;13.90;92.00;;;;;;5028443;28;20033;-72
2021/04/28 12:27:39;;;;;;;13.98;8.93;;;13.90;92.30;;;;;;5028947;28;20021;-65
2021/04/28 12:30:12;;;;;;;13.95;8.55;;;13.90;92.10;;;;;;5028028;28;20269;-66
2021/04/28 12:32:40;;;;;;;18.05;9.52;;;13.90;92.10;;;;;;5025694;28;20044;-65
2021/04/28 12:35:20;;;;;;;11.48;9.40;;;13.90;92.10;;;;;;5052684;28;20100;-72
2021/04/28 12:38:12;;;;;;;13.80;9.32;;;13.90;92.40;;;;;;5045704;28;20123;-70
2021/04/28 12:40:55;;;;;;;13.18;9.52;;;13.90;92.30;;;;;;5043199;28;20039;-70
2021/04/28 12:43:35;;;;;;;16.63;10.05;;;13.90;92.50;;;;;;5047343;28;20476;-69
2021/04/28 12:46:04;;;;;;;13.55;9.68;;;13.80;92.50;;;;;;5040271;28;20060;-73
2021/04/28 12:48:55;;;;;;;18.50;10.95;;;13.80;92.40;;;;;;5039771;28;20438;-69
2021/04/28 12:51:24;;;;;;;13.68;9.25;;;13.80;92.40;;;;;;5033903;28;20033;-72
2021/04/28 12:53:51;;;;;;;18.75;10.05;;;13.80;92.30;;;;;;5056400;28;20058;-74
2021/04/28 12:56:19;;;;;;;16.35;8.75;;;13.70;92.50;;;;;;5051878;28;20029;-68